• Join FlightAware (Why Join?)
  • Login
  • US Flag 
01:29PM EST


 

Airport Tracker/Info


-or-


 

Live Flight TrackerFlight Track Log ✈ N605C ✈ 08-Nov-2013 ✈ KCPS - KUTA

Flight Track Log - Related Links

Times and Time Zones

All times are in EST time to prevent confusion due to time zone crossing. See the N605C flight status page for this flight to view local times or setup timezone preferences in your user account.

Time Position Orientation Groundspeed Altitude Reporting Facility
EST Latitude Longitude Course Direction KTS MPH feet Rate Location/Type
03:16PM 38.5500 -90.1333 142° Southeast 124 143 1,200  Level Gateway (St. Louis) TRACON
03:17PM 38.5333 -90.1167 142° Southeast 141 162 2,100 660 Climbing Gateway (St. Louis) TRACON
03:18PM 38.4950 -90.1125 175° South 152 175 2,400 120 Climbing Kansas City Center
03:19PM 38.4483 -90.1164 184° South 160 184 2,400 180 Level Kansas City Center
03:20PM 38.3989 -90.1197 183° South 169 194 2,800 480 Climbing Kansas City Center
03:21PM 38.3544 -90.1228 183° South 167 192 3,500 720 Climbing Kansas City Center
03:22PM 38.3139 -90.1253 183° South 156 180 4,400 780 Climbing Kansas City Center
03:23PM 38.2728 -90.1272 182° South 151 174 5,200 900 Climbing Kansas City Center
03:24PM 38.2242 -90.1311 184° South 147 169 6,300 900 Climbing Kansas City Center
03:25PM 38.1828 -90.1331 182° South 147 169 7,100 480 Climbing Kansas City Center
03:26PM 38.1400 -90.1361 183° South 150 173 7,400 240 Climbing Kansas City Center
03:27PM 38.0894 -90.1403 184° South 175 201 7,700 360 Climbing Kansas City Center
03:28PM 38.0422 -90.1422 182° South 170 196 8,200 360 Climbing Kansas City Center
03:29PM 37.9972 -90.1453 183° South 163 188 8,500 120 Climbing Kansas City Center
03:30PM 37.9381 -90.1500 184° South 176 203 8,500  Level Kansas City Center
03:31PM 37.8869 -90.1519 182° South 183 211 8,500  Level Kansas City Center
03:32PM 37.8367 -90.1542 182° South 183 211 8,500  Level Kansas City Center
03:33PM 37.7853 -90.1597 185° South 184 212 8,500  Level Kansas City Center
03:34PM 37.7328 -90.1639 184° South 188 216 8,500  Level Kansas City Center
03:35PM 37.6806 -90.1667 182° South 187 215 8,500  Level Kansas City Center
03:36PM 37.6183 -90.1717 184° South 187 215 8,500  Level Kansas City Center
03:37PM 37.5658 -90.1742 182° South 188 216 8,500  Level Kansas City Center
03:38PM 37.5144 -90.1772 183° South 186 214 8,500  Level Kansas City Center
03:39PM 37.4614 -90.1789 181° South 189 217 8,500  Level Kansas City Center
03:40PM 37.4081 -90.1861 186° South 191 220 8,500  Level Kansas City Center
03:41PM 37.3572 -90.1881 182° South 187 215 8,500  Level Kansas City Center
03:42PM 37.3019 -90.1914 183° South 187 215 8,500  Level Kansas City Center
03:43PM 37.2403 -90.1950 183° South 185 213 8,500  Level Kansas City Center
03:44PM 37.1878 -90.1981 183° South 187 215 8,500  Level Kansas City Center
03:46PM 37.1350 -90.2011 183° South 189 217 8,500  Level Kansas City Center
03:47PM 37.0847 -90.2036 182° South 184 212 8,500  Level Kansas City Center
03:48PM 37.0319 -90.2078 184° South 188 216 8,500  Level Kansas City Center
03:49PM 36.9806 -90.2111 183° South 186 214 8,500  Level Kansas City Center
03:50PM 36.9186 -90.2133 182° South 186 214 8,500  Level Kansas City Center
03:51PM 36.8658 -90.2178 184° South 189 217 8,500  Level Kansas City Center
03:52PM 36.8133 -90.2211 183° South 189 217 8,500  Level Kansas City Center
03:53PM 36.7631 -90.2225 181° South 184 212 8,500  Level Kansas City Center
03:54PM 36.6964 -90.2300 185° South 194 223 8,600  Climbing Memphis Center
03:55PM 36.6422 -90.2328 182° South 194 223 8,600  Level Memphis Center
03:56PM 36.5922 -90.2356 183° South 194 223 8,600  Level Memphis Center
03:57PM 36.5381 -90.2408 184° South 194 223 8,600 -60 Level Memphis Center
03:58PM 36.4858 -90.2433 182° South 194 223 8,500 -60 Descending Memphis Center
03:59PM 36.4336 -90.2461 182° South 194 223 8,500  Level Memphis Center
04:00PM 36.3817 -90.2486 182° South 194 223 8,500  Level Memphis Center
04:01PM 36.3294 -90.2514 182° South 194 223 8,500  Level Memphis Center
04:02PM 36.2753 -90.2567 184° South 194 223 8,500  Level Memphis Center
04:03PM 36.2231 -90.2592 182° South 194 223 8,500  Level Memphis Center
04:04PM 36.1711 -90.2619 182° South 194 223 8,500  Level Memphis Center
04:05PM 36.1169 -90.2644 182° South 194 223 8,500  Level Memphis Center
04:06PM 36.0647 -90.2697 185° South 194 223 8,500  Level Memphis Center
04:07PM 36.0125 -90.2697 180° South 194 223 8,500  Level Memphis Center
04:08PM 35.9606 -90.2725 182° South 194 223 8,500  Level Memphis Center
04:09PM 35.9083 -90.2775 184° South 194 223 8,500  Level Memphis Center
04:10PM 35.8561 -90.2803 182° South 194 223 8,500  Level Memphis Center
04:11PM 35.8061 -90.2828 182° South 194 223 8,500  Level Memphis Center
04:12PM 35.7519 -90.2853 182° South 194 223 8,500  Level Memphis Center
04:13PM 35.7019 -90.2906 185° South 194 223 8,500  Level Memphis Center
04:14PM 35.6519 -90.2931 182° South 181 208 8,500  Level Memphis Center
04:15PM 35.5997 -90.2931 180° South 181 208 8,500  Level Memphis Center
04:16PM 35.5456 -90.2983 185° South 186 214 8,500 -180 Level Memphis Center
04:17PM 35.4933 -90.2983 180° South 186 214 8,200 -420 Descending Memphis Center
04:18PM 35.4369 -90.3061 186° South 198 228 7,700 -540 Descending Memphis Center
04:19PM 35.3786 -90.3086 182° South 198 228 7,200 -540 Descending Memphis Center
04:20PM 35.3222 -90.3114 182° South 198 228 6,700 -540 Descending Memphis Center
04:21PM 35.2639 -90.3139 182° South 203 234 6,200 -540 Descending Memphis Center
04:22PM 35.2075 -90.3189 184° South 208 239 5,700 -480 Descending Memphis Center
04:23PM 35.1556 -90.3214 182° South 208 239 5,300 -480 Descending Memphis Center
04:24PM 35.0992 -90.3267 184° South 208 239 4,800 -600 Descending Memphis Center
04:26PM 34.9833 -90.3333 183° South 196 226 3,600 -600 Descending KMEM
04:27PM 34.9333 -90.3333 180° South 193 222 3,000 -600 Descending KMEM